sensor_id;sensor_type;location;lat;lon;timestamp;temperature;humidity
5705;DHT22;2877;48.238;11.160;2022-08-21T00:02:21;15.80;99.90
5705;DHT22;2877;48.238;11.160;2022-08-21T00:04:47;15.80;99.90
5705;DHT22;2877;48.238;11.160;2022-08-21T00:07:13;15.80;99.90
5705;DHT22;2877;48.238;11.160;2022-08-21T00:09:39;15.80;99.90
5705;DHT22;2877;48.238;11.160;2022-08-21T00:12:05;15.80;99.90
5705;DHT22;2877;48.238;11.160;2022-08-21T00:14:31;15.80;99.90
5705;DHT22;2877;48.238;11.160;2022-08-21T00:16:58;15.80;99.90
5705;DHT22;2877;48.238;11.160;2022-08-21T00:19:23;15.80;99.90
5705;DHT22;2877;48.238;11.160;2022-08-21T00:21:53;15.80;99.90
5705;DHT22;2877;48.238;11.160;2022-08-21T00:24:20;15.80;99.90
5705;DHT22;2877;48.238;11.160;2022-08-21T00:26:46;15.80;99.90
5705;DHT22;2877;48.238;11.160;2022-08-21T00:29:13;15.80;99.90
5705;DHT22;2877;48.238;11.160;2022-08-21T00:31:39;15.70;99.90
5705;DHT22;2877;48.238;11.160;2022-08-21T00:34:05;15.70;99.90
5705;DHT22;2877;48.238;11.160;2022-08-21T00:36:33;15.70;99.90
5705;DHT22;2877;48.238;11.160;2022-08-21T00:38:59;15.70;99.90
5705;DHT22;2877;48.238;11.160;2022-08-21T00:41:24;15.70;99.90
5705;DHT22;2877;48.238;11.160;2022-08-21T00:43:50;15.70;99.90
5705;DHT22;2877;48.238;11.160;2022-08-21T00:46:17;15.70;99.90
5705;DHT22;2877;48.238;11.160;2022-08-21T00:48:43;15.70;99.90
5705;DHT22;2877;48.238;11.160;2022-08-21T00:51:12;15.70;99.90
5705;DHT22;2877;48.238;11.160;2022-08-21T00:53:40;15.70;99.90
5705;DHT22;2877;48.238;11.160;2022-08-21T00:56:09;15.70;99.90
5705;DHT22;2877;48.238;11.160;2022-08-21T00:58:36;15.60;99.90
5705;DHT22;2877;48.238;11.160;2022-08-21T01:01:04;15.60;99.90
5705;DHT22;2877;48.238;11.160;2022-08-21T01:03:31;15.60;99.90
5705;DHT22;2877;48.238;11.160;2022-08-21T01:05:56;15.50;99.90
5705;DHT22;2877;48.238;11.160;2022-08-21T01:08:22;15.50;99.90
5705;DHT22;2877;48.238;11.160;2022-08-21T01:10:49;15.60;99.90
5705;DHT22;2877;48.238;11.160;2022-08-21T01:13:17;15.60;99.90
5705;DHT22;2877;48.238;11.160;2022-08-21T01:15:46;15.60;99.90
5705;DHT22;2877;48.238;11.160;2022-08-21T01:18:17;15.50;99.90
5705;DHT22;2877;48.238;11.160;2022-08-21T01:20:57;15.50;99.90
5705;DHT22;2877;48.238;11.160;2022-08-21T01:23:22;15.40;99.90
5705;DHT22;2877;48.238;11.160;2022-08-21T01:25:48;15.40;99.90
5705;DHT22;2877;48.238;11.160;2022-08-21T01:28:14;15.40;99.90
5705;DHT22;2877;48.238;11.160;2022-08-21T01:30:42;15.40;99.90
5705;DHT22;2877;48.238;11.160;2022-08-21T01:33:07;15.40;99.90
5705;DHT22;2877;48.238;11.160;2022-08-21T01:35:33;15.50;99.90
5705;DHT22;2877;48.238;11.160;2022-08-21T01:37:59;15.50;99.90
5705;DHT22;2877;48.238;11.160;2022-08-21T01:40:24;15.50;99.90
5705;DHT22;2877;48.238;11.160;2022-08-21T01:42:50;15.50;99.90
5705;DHT22;2877;48.238;11.160;2022-08-21T01:45:16;15.50;99.90
5705;DHT22;2877;48.238;11.160;2022-08-21T01:47:44;15.40;99.90
5705;DHT22;2877;48.238;11.160;2022-08-21T01:50:13;15.40;99.90
5705;DHT22;2877;48.238;11.160;2022-08-21T01:52:40;15.40;99.90
5705;DHT22;2877;48.238;11.160;2022-08-21T01:55:07;15.40;99.90
5705;DHT22;2877;48.238;11.160;2022-08-21T01:57:34;15.40;99.90
5705;DHT22;2877;48.238;11.160;2022-08-21T02:00:00;15.40;99.90
5705;DHT22;2877;48.238;11.160;2022-08-21T02:02:26;15.30;99.90
5705;DHT22;2877;48.238;11.160;2022-08-21T02:04:51;15.30;99.90
5705;DHT22;2877;48.238;11.160;2022-08-21T02:07:17;15.30;99.90
5705;DHT22;2877;48.238;11.160;2022-08-21T02:09:43;15.30;99.90
5705;DHT22;2877;48.238;11.160;2022-08-21T02:12:10;15.30;99.90
5705;DHT22;2877;48.238;11.160;2022-08-21T02:14:36;15.30;99.90
5705;DHT22;2877;48.238;11.160;2022-08-21T02:17:03;15.30;99.90
5705;DHT22;2877;48.238;11.160;2022-08-21T02:19:29;15.30;99.90
5705;DHT22;2877;48.238;11.160;2022-08-21T02:21:54;15.30;99.90
5705;DHT22;2877;48.238;11.160;2022-08-21T02:24:20;15.30;99.90
5705;DHT22;2877;48.238;11.160;2022-08-21T02:26:45;15.30;99.90
5705;DHT22;2877;48.238;11.160;2022-08-21T02:29:11;15.20;99.90
5705;DHT22;2877;48.238;11.160;2022-08-21T02:31:37;15.20;99.90
5705;DHT22;2877;48.238;11.160;2022-08-21T02:34:03;15.10;99.90
5705;DHT22;2877;48.238;11.160;2022-08-21T02:36:28;15.10;99.90
5705;DHT22;2877;48.238;11.160;2022-08-21T02:38:54;15.20;99.90
5705;DHT22;2877;48.238;11.160;2022-08-21T02:41:20;15.20;99.90
5705;DHT22;2877;48.238;11.160;2022-08-21T02:43:46;15.10;99.90
5705;DHT22;2877;48.238;11.160;2022-08-21T02:46:14;15.10;99.90
5705;DHT22;2877;48.238;11.160;2022-08-21T02:48:40;15.10;99.90
5705;DHT22;2877;48.238;11.160;2022-08-21T02:51:09;15.10;99.90
5705;DHT22;2877;48.238;11.160;2022-08-21T02:53:35;15.10;99.90
5705;DHT22;2877;48.238;11.160;2022-08-21T02:56:04;15.00;99.90
5705;DHT22;2877;48.238;11.160;2022-08-21T02:58:36;15.00;99.90
5705;DHT22;2877;48.238;11.160;2022-08-21T03:01:04;15.00;99.90
5705;DHT22;2877;48.238;11.160;2022-08-21T03:03:30;15.00;99.90
5705;DHT22;2877;48.238;11.160;2022-08-21T03:05:56;15.00;99.90
5705;DHT22;2877;48.238;11.160;2022-08-21T03:08:22;15.00;99.90
5705;DHT22;2877;48.238;11.160;2022-08-21T03:10:50;14.90;99.90
5705;DHT22;2877;48.238;11.160;2022-08-21T03:13:16;14.90;99.90
5705;DHT22;2877;48.238;11.160;2022-08-21T03:15:43;14.90;99.90
5705;DHT22;2877;48.238;11.160;2022-08-21T03:18:10;14.90;99.90
5705;DHT22;2877;48.238;11.160;2022-08-21T03:20:38;14.90;99.90
5705;DHT22;2877;48.238;11.160;2022-08-21T03:23:05;14.80;99.90
5705;DHT22;2877;48.238;11.160;2022-08-21T03:25:31;14.80;99.90
5705;DHT22;2877;48.238;11.160;2022-08-21T03:27:58;14.80;99.90
5705;DHT22;2877;48.238;11.160;2022-08-21T03:30:24;14.80;99.90
5705;DHT22;2877;48.238;11.160;2022-08-21T03:32:50;14.70;99.90
5705;DHT22;2877;48.238;11.160;2022-08-21T03:35:17;14.70;99.90
5705;DHT22;2877;48.238;11.160;2022-08-21T03:37:43;14.70;99.90
5705;DHT22;2877;48.238;11.160;2022-08-21T03:40:11;14.60;99.90
5705;DHT22;2877;48.238;11.160;2022-08-21T03:42:37;14.60;99.90
5705;DHT22;2877;48.238;11.160;2022-08-21T03:45:03;14.60;99.90
5705;DHT22;2877;48.238;11.160;2022-08-21T03:47:28;14.60;99.90
5705;DHT22;2877;48.238;11.160;2022-08-21T03:49:54;14.50;99.90
5705;DHT22;2877;48.238;11.160;2022-08-21T03:52:19;14.50;99.90
5705;DHT22;2877;48.238;11.160;2022-08-21T03:54:45;14.60;99.90
5705;DHT22;2877;48.238;11.160;2022-08-21T03:57:11;14.60;99.90
5705;DHT22;2877;48.238;11.160;2022-08-21T03:59:38;14.60;99.90
5705;DHT22;2877;48.238;11.160;2022-08-21T04:02:06;14.60;99.90
5705;DHT22;2877;48.238;11.160;2022-08-21T04:04:32;14.60;99.90
5705;DHT22;2877;48.238;11.160;2022-08-21T04:06:58;14.60;99.90
5705;DHT22;2877;48.238;11.160;2022-08-21T04:09:25;14.60;99.90
5705;DHT22;2877;48.238;11.160;2022-08-21T04:11:51;14.50;99.90
5705;DHT22;2877;48.238;11.160;2022-08-21T04:14:17;14.50;99.90
5705;DHT22;2877;48.238;11.160;2022-08-21T04:16:43;14.50;99.90
5705;DHT22;2877;48.238;11.160;2022-08-21T04:19:12;14.50;99.90
5705;DHT22;2877;48.238;11.160;2022-08-21T04:21:39;14.40;99.90
5705;DHT22;2877;48.238;11.160;2022-08-21T04:24:06;14.40;99.90
5705;DHT22;2877;48.238;11.160;2022-08-21T04:26:33;14.40;99.90
5705;DHT22;2877;48.238;11.160;2022-08-21T04:29:00;14.40;99.90
5705;DHT22;2877;48.238;11.160;2022-08-21T04:31:25;14.30;99.90
5705;DHT22;2877;48.238;11.160;2022-08-21T04:33:51;14.30;99.90
5705;DHT22;2877;48.238;11.160;2022-08-21T04:36:17;14.40;99.90
5705;DHT22;2877;48.238;11.160;2022-08-21T04:38:43;14.30;99.90
5705;DHT22;2877;48.238;11.160;2022-08-21T04:41:09;14.20;99.90
5705;DHT22;2877;48.238;11.160;2022-08-21T04:43:35;14.20;99.90
5705;DHT22;2877;48.238;11.160;2022-08-21T04:46:00;14.10;99.90
5705;DHT22;2877;48.238;11.160;2022-08-21T04:48:26;14.10;99.90
5705;DHT22;2877;48.238;11.160;2022-08-21T04:50:57;14.20;99.90
5705;DHT22;2877;48.238;11.160;2022-08-21T04:53:35;14.10;99.90
5705;DHT22;2877;48.238;11.160;2022-08-21T04:56:08;14.10;99.90
5705;DHT22;2877;48.238;11.160;2022-08-21T04:58:36;14.20;99.90
5705;DHT22;2877;48.238;11.160;2022-08-21T05:01:03;14.30;99.90
5705;DHT22;2877;48.238;11.160;2022-08-21T05:03:32;14.30;99.90
5705;DHT22;2877;48.238;11.160;2022-08-21T05:05:58;14.30;99.90
5705;DHT22;2877;48.238;11.160;2022-08-21T05:08:25;14.40;99.90
5705;DHT22;2877;48.238;11.160;2022-08-21T05:10:53;14.40;99.90
5705;DHT22;2877;48.238;11.160;2022-08-21T05:13:19;14.50;99.90
5705;DHT22;2877;48.238;11.160;2022-08-21T05:15:45;14.60;99.90
5705;DHT22;2877;48.238;11.160;2022-08-21T05:18:10;14.70;99.90
5705;DHT22;2877;48.238;11.160;2022-08-21T05:20:36;14.70;99.90
5705;DHT22;2877;48.238;11.160;2022-08-21T05:23:10;14.80;99.90
5705;DHT22;2877;48.238;11.160;2022-08-21T05:25:36;14.80;99.90
5705;DHT22;2877;48.238;11.160;2022-08-21T05:28:03;14.90;99.90
5705;DHT22;2877;48.238;11.160;2022-08-21T05:30:29;15.00;99.90
5705;DHT22;2877;48.238;11.160;2022-08-21T05:32:59;15.10;99.90
5705;DHT22;2877;48.238;11.160;2022-08-21T05:35:26;15.10;99.90
5705;DHT22;2877;48.238;11.160;2022-08-21T05:37:51;15.20;99.90
5705;DHT22;2877;48.238;11.160;2022-08-21T05:40:17;15.30;99.90
5705;DHT22;2877;48.238;11.160;2022-08-21T05:42:43;15.40;99.90
5705;DHT22;2877;48.238;11.160;2022-08-21T05:45:09;15.50;99.90
5705;DHT22;2877;48.238;11.160;2022-08-21T05:47:35;15.50;99.90
5705;DHT22;2877;48.238;11.160;2022-08-21T05:50:00;15.60;99.90
5705;DHT22;2877;48.238;11.160;2022-08-21T05:52:26;15.70;99.90
5705;DHT22;2877;48.238;11.160;2022-08-21T05:54:51;15.80;99.90
5705;DHT22;2877;48.238;11.160;2022-08-21T05:57:19;15.90;99.90
5705;DHT22;2877;48.238;11.160;2022-08-21T05:59:45;15.90;99.90
5705;DHT22;2877;48.238;11.160;2022-08-21T06:02:11;16.00;99.90
5705;DHT22;2877;48.238;11.160;2022-08-21T06:04:38;16.10;99.90
5705;DHT22;2877;48.238;11.160;2022-08-21T06:07:04;16.20;99.90
5705;DHT22;2877;48.238;11.160;2022-08-21T06:09:29;16.30;99.90
5705;DHT22;2877;48.238;11.160;2022-08-21T06:11:55;16.30;99.90
5705;DHT22;2877;48.238;11.160;2022-08-21T06:14:21;16.40;99.90
5705;DHT22;2877;48.238;11.160;2022-08-21T06:16:46;16.50;99.90
5705;DHT22;2877;48.238;11.160;2022-08-21T06:19:12;16.60;99.90
5705;DHT22;2877;48.238;11.160;2022-08-21T06:21:37;16.70;99.90
5705;DHT22;2877;48.238;11.160;2022-08-21T06:24:04;16.70;99.90
5705;DHT22;2877;48.238;11.160;2022-08-21T06:26:30;16.80;99.90
5705;DHT22;2877;48.238;11.160;2022-08-21T06:28:56;16.80;99.90
5705;DHT22;2877;48.238;11.160;2022-08-21T06:31:23;16.90;99.90
5705;DHT22;2877;48.238;11.160;2022-08-21T06:33:51;16.90;99.90
5705;DHT22;2877;48.238;11.160;2022-08-21T06:36:17;17.00;99.90
5705;DHT22;2877;48.238;11.160;2022-08-21T06:38:43;17.00;99.90
5705;DHT22;2877;48.238;11.160;2022-08-21T06:41:10;17.10;99.90
5705;DHT22;2877;48.238;11.160;2022-08-21T06:43:36;17.20;99.90
5705;DHT22;2877;48.238;11.160;2022-08-21T06:46:01;17.30;99.90
5705;DHT22;2877;48.238;11.160;2022-08-21T06:48:27;17.30;99.90
5705;DHT22;2877;48.238;11.160;2022-08-21T06:50:52;17.40;99.90
5705;DHT22;2877;48.238;11.160;2022-08-21T06:53:19;17.50;99.90
5705;DHT22;2877;48.238;11.160;2022-08-21T06:55:46;17.50;99.90
5705;DHT22;2877;48.238;11.160;2022-08-21T06:58:12;17.60;99.90
5705;DHT22;2877;48.238;11.160;2022-08-21T07:00:40;17.70;99.90
5705;DHT22;2877;48.238;11.160;2022-08-21T07:03:06;17.70;99.90
5705;DHT22;2877;48.238;11.160;2022-08-21T07:05:32;17.70;99.90
5705;DHT22;2877;48.238;11.160;2022-08-21T07:07:58;17.80;99.90
5705;DHT22;2877;48.238;11.160;2022-08-21T07:10:26;17.90;99.90
5705;DHT22;2877;48.238;11.160;2022-08-21T07:12:53;18.00;99.90
5705;DHT22;2877;48.238;11.160;2022-08-21T07:15:20;18.00;99.90
5705;DHT22;2877;48.238;11.160;2022-08-21T07:17:45;18.20;99.90
5705;DHT22;2877;48.238;11.160;2022-08-21T07:20:11;18.20;99.90
5705;DHT22;2877;48.238;11.160;2022-08-21T07:22:38;18.30;99.90
5705;DHT22;2877;48.238;11.160;2022-08-21T07:25:05;18.40;99.90
5705;DHT22;2877;48.238;11.160;2022-08-21T07:27:31;18.40;99.90
5705;DHT22;2877;48.238;11.160;2022-08-21T07:29:57;18.40;99.90
5705;DHT22;2877;48.238;11.160;2022-08-21T07:32:23;18.60;99.90
5705;DHT22;2877;48.238;11.160;2022-08-21T07:34:48;18.50;99.90
5705;DHT22;2877;48.238;11.160;2022-08-21T07:37:14;18.60;99.90
5705;DHT22;2877;48.238;11.160;2022-08-21T07:39:40;18.60;99.90
5705;DHT22;2877;48.238;11.160;2022-08-21T07:42:05;18.70;99.90
5705;DHT22;2877;48.238;11.160;2022-08-21T07:44:31;18.80;99.90
5705;DHT22;2877;48.238;11.160;2022-08-21T07:46:59;18.80;99.90
5705;DHT22;2877;48.238;11.160;2022-08-21T07:49:25;19.00;99.90
5705;DHT22;2877;48.238;11.160;2022-08-21T07:51:50;19.10;99.90
5705;DHT22;2877;48.238;11.160;2022-08-21T07:54:17;19.10;99.90
5705;DHT22;2877;48.238;11.160;2022-08-21T07:56:42;19.10;99.90
5705;DHT22;2877;48.238;11.160;2022-08-21T07:59:08;19.20;99.90
5705;DHT22;2877;48.238;11.160;2022-08-21T08:01:33;19.40;99.90
5705;DHT22;2877;48.238;11.160;2022-08-21T08:03:59;19.30;99.90
5705;DHT22;2877;48.238;11.160;2022-08-21T08:06:25;19.30;99.90
5705;DHT22;2877;48.238;11.160;2022-08-21T08:08:51;19.20;99.90
5705;DHT22;2877;48.238;11.160;2022-08-21T08:11:17;19.20;99.90
5705;DHT22;2877;48.238;11.160;2022-08-21T08:13:46;19.30;99.90
5705;DHT22;2877;48.238;11.160;2022-08-21T08:16:13;19.40;99.90
5705;DHT22;2877;48.238;11.160;2022-08-21T08:18:38;19.50;99.90
5705;DHT22;2877;48.238;11.160;2022-08-21T08:21:04;19.60;99.90
5705;DHT22;2877;48.238;11.160;2022-08-21T08:23:31;19.70;99.90
5705;DHT22;2877;48.238;11.160;2022-08-21T08:25:58;19.90;99.90
5705;DHT22;2877;48.238;11.160;2022-08-21T08:28:24;20.10;99.90
5705;DHT22;2877;48.238;11.160;2022-08-21T08:30:49;20.10;99.90
5705;DHT22;2877;48.238;11.160;2022-08-21T08:33:16;20.00;99.90
5705;DHT22;2877;48.238;11.160;2022-08-21T08:35:45;20.00;99.90
5705;DHT22;2877;48.238;11.160;2022-08-21T08:38:11;20.10;99.90
5705;DHT22;2877;48.238;11.160;2022-08-21T08:40:47;20.10;99.90
5705;DHT22;2877;48.238;11.160;2022-08-21T08:43:16;20.10;99.90
5705;DHT22;2877;48.238;11.160;2022-08-21T08:45:46;20.20;99.90
5705;DHT22;2877;48.238;11.160;2022-08-21T08:48:14;20.30;99.90
5705;DHT22;2877;48.238;11.160;2022-08-21T08:50:47;20.40;99.90
5705;DHT22;2877;48.238;11.160;2022-08-21T08:53:33;20.40;99.90
5705;DHT22;2877;48.238;11.160;2022-08-21T08:56:01;20.40;99.90
5705;DHT22;2877;48.238;11.160;2022-08-21T08:58:32;20.70;99.90
5705;DHT22;2877;48.238;11.160;2022-08-21T09:00:59;20.60;99.90
5705;DHT22;2877;48.238;11.160;2022-08-21T09:03:26;20.70;99.90
5705;DHT22;2877;48.238;11.160;2022-08-21T09:06:09;20.70;99.90
5705;DHT22;2877;48.238;11.160;2022-08-21T09:14:37;21.00;99.90
5705;DHT22;2877;48.238;11.160;2022-08-21T09:25:21;21.60;99.90
5705;DHT22;2877;48.238;11.160;2022-08-21T09:27:48;21.80;99.90
5705;DHT22;2877;48.238;11.160;2022-08-21T09:30:14;21.80;99.90
5705;DHT22;2877;48.238;11.160;2022-08-21T09:32:40;21.90;99.90
5705;DHT22;2877;48.238;11.160;2022-08-21T09:35:15;22.10;99.90
5705;DHT22;2877;48.238;11.160;2022-08-21T09:38:02;21.80;99.90
5705;DHT22;2877;48.238;11.160;2022-08-21T09:40:36;21.90;99.90
5705;DHT22;2877;48.238;11.160;2022-08-21T09:43:17;21.60;99.90
5705;DHT22;2877;48.238;11.160;2022-08-21T09:45:44;21.40;99.90
5705;DHT22;2877;48.238;11.160;2022-08-21T09:50:45;22.30;99.90
5705;DHT22;2877;48.238;11.160;2022-08-21T09:53:20;22.30;99.90
5705;DHT22;2877;48.238;11.160;2022-08-21T09:55:53;22.20;99.90
5705;DHT22;2877;48.238;11.160;2022-08-21T09:58:41;22.20;99.90
5705;DHT22;2877;48.238;11.160;2022-08-21T10:01:14;22.50;99.90
5705;DHT22;2877;48.238;11.160;2022-08-21T10:03:39;22.50;99.90
5705;DHT22;2877;48.238;11.160;2022-08-21T10:06:07;23.00;99.90
5705;DHT22;2877;48.238;11.160;2022-08-21T10:08:37;23.40;99.90
5705;DHT22;2877;48.238;11.160;2022-08-21T10:11:07;23.60;99.90
5705;DHT22;2877;48.238;11.160;2022-08-21T10:16:40;23.60;99.90
5705;DHT22;2877;48.238;11.160;2022-08-21T10:27:47;22.50;99.90
5705;DHT22;2877;48.238;11.160;2022-08-21T10:36:33;23.30;99.90
5705;DHT22;2877;48.238;11.160;2022-08-21T10:39:24;23.60;99.90
5705;DHT22;2877;48.238;11.160;2022-08-21T10:42:33;24.00;99.90
5705;DHT22;2877;48.238;11.160;2022-08-21T10:45:12;24.20;99.90
5705;DHT22;2877;48.238;11.160;2022-08-21T10:47:49;23.80;99.90
5705;DHT22;2877;48.238;11.160;2022-08-21T10:50:50;23.20;99.90
5705;DHT22;2877;48.238;11.160;2022-08-21T10:53:22;23.20;99.90
5705;DHT22;2877;48.238;11.160;2022-08-21T10:56:12;23.20;99.90
5705;DHT22;2877;48.238;11.160;2022-08-21T10:58:56;23.30;99.90
5705;DHT22;2877;48.238;11.160;2022-08-21T11:01:39;23.30;99.30
5705;DHT22;2877;48.238;11.160;2022-08-21T11:04:31;23.30;99.90
5705;DHT22;2877;48.238;11.160;2022-08-21T11:07:02;23.30;99.90
5705;DHT22;2877;48.238;11.160;2022-08-21T11:09:28;23.70;99.90
5705;DHT22;2877;48.238;11.160;2022-08-21T11:12:24;24.20;99.60
5705;DHT22;2877;48.238;11.160;2022-08-21T11:15:02;24.20;97.30
5705;DHT22;2877;48.238;11.160;2022-08-21T11:17:34;23.90;94.10
5705;DHT22;2877;48.238;11.160;2022-08-21T11:20:15;24.00;92.80
5705;DHT22;2877;48.238;11.160;2022-08-21T11:22:58;24.20;93.20
5705;DHT22;2877;48.238;11.160;2022-08-21T11:28:16;24.40;94.00
5705;DHT22;2877;48.238;11.160;2022-08-21T11:30:53;25.00;94.80
5705;DHT22;2877;48.238;11.160;2022-08-21T11:36:33;26.00;92.30
5705;DHT22;2877;48.238;11.160;2022-08-21T11:42:03;26.90;86.60
5705;DHT22;2877;48.238;11.160;2022-08-21T11:44:45;26.50;89.30
5705;DHT22;2877;48.238;11.160;2022-08-21T11:50:18;25.70;90.60
5705;DHT22;2877;48.238;11.160;2022-08-21T11:52:56;26.10;87.60
5705;DHT22;2877;48.238;11.160;2022-08-21T11:58:19;26.90;81.90
5705;DHT22;2877;48.238;11.160;2022-08-21T12:00:56;27.10;76.00
5705;DHT22;2877;48.238;11.160;2022-08-21T12:03:36;27.10;77.30
5705;DHT22;2877;48.238;11.160;2022-08-21T12:06:06;27.30;77.80
5705;DHT22;2877;48.238;11.160;2022-08-21T12:11:20;27.50;75.60
5705;DHT22;2877;48.238;11.160;2022-08-21T12:16:37;28.10;73.10
5705;DHT22;2877;48.238;11.160;2022-08-21T12:19:09;28.90;68.50
5705;DHT22;2877;48.238;11.160;2022-08-21T12:21:52;29.30;67.60
5705;DHT22;2877;48.238;11.160;2022-08-21T12:24:35;29.60;64.70
5705;DHT22;2877;48.238;11.160;2022-08-21T12:29:47;28.50;61.90
5705;DHT22;2877;48.238;11.160;2022-08-21T12:34:44;28.30;63.10
5705;DHT22;2877;48.238;11.160;2022-08-21T12:37:22;28.40;64.40
5705;DHT22;2877;48.238;11.160;2022-08-21T12:39:51;28.30;61.00
5705;DHT22;2877;48.238;11.160;2022-08-21T12:42:30;27.90;59.40
5705;DHT22;2877;48.238;11.160;2022-08-21T12:45:02;28.10;58.90
5705;DHT22;2877;48.238;11.160;2022-08-21T12:47:36;29.10;59.40
5705;DHT22;2877;48.238;11.160;2022-08-21T12:55:32;30.40;56.50
5705;DHT22;2877;48.238;11.160;2022-08-21T12:57:59;30.80;56.20
5705;DHT22;2877;48.238;11.160;2022-08-21T13:00:26;31.50;54.50
5705;DHT22;2877;48.238;11.160;2022-08-21T13:02:53;31.90;53.80
5705;DHT22;2877;48.238;11.160;2022-08-21T13:05:33;32.00;51.30
5705;DHT22;2877;48.238;11.160;2022-08-21T13:08:03;32.60;50.80
5705;DHT22;2877;48.238;11.160;2022-08-21T13:10:31;33.70;48.80
5705;DHT22;2877;48.238;11.160;2022-08-21T13:13:00;34.70;45.90
5705;DHT22;2877;48.238;11.160;2022-08-21T13:15:31;35.00;43.60
5705;DHT22;2877;48.238;11.160;2022-08-21T13:17:57;35.00;44.30
5705;DHT22;2877;48.238;11.160;2022-08-21T13:20:38;34.50;43.70
5705;DHT22;2877;48.238;11.160;2022-08-21T13:25:43;34.70;41.30
5705;DHT22;2877;48.238;11.160;2022-08-21T13:28:11;34.20;43.30
5705;DHT22;2877;48.238;11.160;2022-08-21T13:31:06;33.70;43.60
5705;DHT22;2877;48.238;11.160;2022-08-21T13:33:32;32.70;44.70
5705;DHT22;2877;48.238;11.160;2022-08-21T13:36:04;32.70;44.70
5705;DHT22;2877;48.238;11.160;2022-08-21T13:38:33;33.20;45.30
5705;DHT22;2877;48.238;11.160;2022-08-21T13:41:03;33.20;44.00
5705;DHT22;2877;48.238;11.160;2022-08-21T13:43:34;33.40;44.80
5705;DHT22;2877;48.238;11.160;2022-08-21T13:46:07;32.90;43.80
5705;DHT22;2877;48.238;11.160;2022-08-21T13:48:35;32.50;45.40
5705;DHT22;2877;48.238;11.160;2022-08-21T13:51:01;32.60;45.60
5705;DHT22;2877;48.238;11.160;2022-08-21T13:56:06;31.60;44.50
5705;DHT22;2877;48.238;11.160;2022-08-21T13:58:42;31.60;45.60
5705;DHT22;2877;48.238;11.160;2022-08-21T14:03:49;33.00;45.00
5705;DHT22;2877;48.238;11.160;2022-08-21T14:06:18;34.10;43.20
5705;DHT22;2877;48.238;11.160;2022-08-21T14:08:50;34.20;41.60
5705;DHT22;2877;48.238;11.160;2022-08-21T14:11:16;33.90;41.80
5705;DHT22;2877;48.238;11.160;2022-08-21T14:13:51;32.90;44.50
5705;DHT22;2877;48.238;11.160;2022-08-21T14:16:39;33.10;42.20
5705;DHT22;2877;48.238;11.160;2022-08-21T14:19:10;33.00;42.20
5705;DHT22;2877;48.238;11.160;2022-08-21T14:21:42;32.90;42.20
5705;DHT22;2877;48.238;11.160;2022-08-21T14:26:54;33.80;42.80
5705;DHT22;2877;48.238;11.160;2022-08-21T14:29:24;34.00;42.10
5705;DHT22;2877;48.238;11.160;2022-08-21T14:31:56;34.30;41.10
5705;DHT22;2877;48.238;11.160;2022-08-21T14:34:24;34.10;41.00
5705;DHT22;2877;48.238;11.160;2022-08-21T14:36:50;32.70;40.20
5705;DHT22;2877;48.238;11.160;2022-08-21T14:39:16;31.50;43.20
5705;DHT22;2877;48.238;11.160;2022-08-21T14:41:42;30.50;45.30
5705;DHT22;2877;48.238;11.160;2022-08-21T14:44:09;28.80;48.40
5705;DHT22;2877;48.238;11.160;2022-08-21T14:46:36;28.00;49.90
5705;DHT22;2877;48.238;11.160;2022-08-21T14:49:03;27.50;50.40
5705;DHT22;2877;48.238;11.160;2022-08-21T14:51:28;26.80;50.90
5705;DHT22;2877;48.238;11.160;2022-08-21T14:53:54;26.40;53.10
5705;DHT22;2877;48.238;11.160;2022-08-21T14:56:19;26.00;54.90
5705;DHT22;2877;48.238;11.160;2022-08-21T14:58:47;25.60;56.00
5705;DHT22;2877;48.238;11.160;2022-08-21T15:01:15;25.60;56.40
5705;DHT22;2877;48.238;11.160;2022-08-21T15:03:42;25.50;55.30
5705;DHT22;2877;48.238;11.160;2022-08-21T15:06:09;25.30;56.60
5705;DHT22;2877;48.238;11.160;2022-08-21T15:08:35;25.40;56.30
5705;DHT22;2877;48.238;11.160;2022-08-21T15:11:02;25.50;56.70
5705;DHT22;2877;48.238;11.160;2022-08-21T15:13:28;25.20;56.30
5705;DHT22;2877;48.238;11.160;2022-08-21T15:15:54;25.20;55.90
5705;DHT22;2877;48.238;11.160;2022-08-21T15:18:22;25.20;56.50
5705;DHT22;2877;48.238;11.160;2022-08-21T15:20:48;25.30;57.40
5705;DHT22;2877;48.238;11.160;2022-08-21T15:23:15;25.30;57.70
5705;DHT22;2877;48.238;11.160;2022-08-21T15:25:43;24.90;55.40
5705;DHT22;2877;48.238;11.160;2022-08-21T15:28:10;24.70;57.50
5705;DHT22;2877;48.238;11.160;2022-08-21T15:30:36;24.70;57.20
5705;DHT22;2877;48.238;11.160;2022-08-21T15:33:03;24.80;57.00
5705;DHT22;2877;48.238;11.160;2022-08-21T15:35:28;24.80;56.80
5705;DHT22;2877;48.238;11.160;2022-08-21T15:37:54;24.80;57.20
5705;DHT22;2877;48.238;11.160;2022-08-21T15:40:19;24.80;56.70
5705;DHT22;2877;48.238;11.160;2022-08-21T15:42:45;24.80;56.50
5705;DHT22;2877;48.238;11.160;2022-08-21T15:45:13;24.90;56.20
5705;DHT22;2877;48.238;11.160;2022-08-21T15:47:43;24.70;56.20
5705;DHT22;2877;48.238;11.160;2022-08-21T15:50:09;24.60;57.20
5705;DHT22;2877;48.238;11.160;2022-08-21T15:52:36;24.70;57.80
5705;DHT22;2877;48.238;11.160;2022-08-21T15:55:03;24.80;56.50
5705;DHT22;2877;48.238;11.160;2022-08-21T15:57:28;24.90;56.30
5705;DHT22;2877;48.238;11.160;2022-08-21T15:59:58;24.80;56.20
5705;DHT22;2877;48.238;11.160;2022-08-21T16:02:24;24.80;55.90
5705;DHT22;2877;48.238;11.160;2022-08-21T16:04:50;24.80;56.50
5705;DHT22;2877;48.238;11.160;2022-08-21T16:07:16;24.70;55.70
5705;DHT22;2877;48.238;11.160;2022-08-21T16:09:42;24.80;56.20
5705;DHT22;2877;48.238;11.160;2022-08-21T16:12:11;25.00;56.80
5705;DHT22;2877;48.238;11.160;2022-08-21T16:14:38;25.00;56.10
5705;DHT22;2877;48.238;11.160;2022-08-21T16:17:05;25.00;55.90
5705;DHT22;2877;48.238;11.160;2022-08-21T16:19:31;25.00;55.80
5705;DHT22;2877;48.238;11.160;2022-08-21T16:21:58;25.00;55.90
5705;DHT22;2877;48.238;11.160;2022-08-21T16:24:23;25.00;56.20
5705;DHT22;2877;48.238;11.160;2022-08-21T16:26:49;25.20;57.10
5705;DHT22;2877;48.238;11.160;2022-08-21T16:29:15;25.50;56.50
5705;DHT22;2877;48.238;11.160;2022-08-21T16:31:40;26.00;57.40
5705;DHT22;2877;48.238;11.160;2022-08-21T16:34:06;26.60;55.60
5705;DHT22;2877;48.238;11.160;2022-08-21T16:36:32;27.60;54.00
5705;DHT22;2877;48.238;11.160;2022-08-21T16:38:58;28.50;52.20
5705;DHT22;2877;48.238;11.160;2022-08-21T16:41:30;28.80;51.90
5705;DHT22;2877;48.238;11.160;2022-08-21T16:43:56;29.30;50.60
5705;DHT22;2877;48.238;11.160;2022-08-21T16:46:22;29.40;50.40
5705;DHT22;2877;48.238;11.160;2022-08-21T16:48:49;30.10;48.30
5705;DHT22;2877;48.238;11.160;2022-08-21T16:51:15;30.90;46.70
5705;DHT22;2877;48.238;11.160;2022-08-21T16:53:41;31.60;46.80
5705;DHT22;2877;48.238;11.160;2022-08-21T16:56:08;31.60;46.80
5705;DHT22;2877;48.238;11.160;2022-08-21T16:58:37;32.10;46.30
5705;DHT22;2877;48.238;11.160;2022-08-21T17:01:07;32.10;46.20
5705;DHT22;2877;48.238;11.160;2022-08-21T17:03:38;32.60;45.80
5705;DHT22;2877;48.238;11.160;2022-08-21T17:06:04;33.30;45.80
5705;DHT22;2877;48.238;11.160;2022-08-21T17:08:30;33.70;44.20
5705;DHT22;2877;48.238;11.160;2022-08-21T17:10:56;34.00;43.80